sensor_id;sensor_type;location;lat;lon;timestamp;P1;durP1;ratioP1;P2;durP2;ratioP2
37151;SDS011;23046;50.112;8.952;2023-12-29T00:00:04;1.70;;;1.60;;
37151;SDS011;23046;50.112;8.952;2023-12-29T00:00:16;1.63;;;1.52;;
37151;SDS011;23046;50.112;8.952;2023-12-29T00:00:26;1.60;;;1.50;;
37151;SDS011;23046;50.112;8.952;2023-12-29T00:00:36;1.60;;;1.50;;
37151;SDS011;23046;50.112;8.952;2023-12-29T00:00:46;1.90;;;1.50;;
37151;SDS011;23046;50.112;8.952;2023-12-29T00:00:57;1.90;;;1.53;;
37151;SDS011;23046;50.112;8.952;2023-12-29T00:01:07;1.87;;;1.67;;
37151;SDS011;23046;50.112;8.952;2023-12-29T00:01:17;1.90;;;1.80;;
37151;SDS011;23046;50.112;8.952;2023-12-29T00:01:31;1.77;;;1.67;;
37151;SDS011;23046;50.112;8.952;2023-12-29T00:01:41;1.70;;;1.50;;
37151;SDS011;23046;50.112;8.952;2023-12-29T00:01:51;1.70;;;1.50;;
37151;SDS011;23046;50.112;8.952;2023-12-29T00:02:02;2.53;;;1.53;;
37151;SDS011;23046;50.112;8.952;2023-12-29T00:02:12;2.50;;;1.60;;
37151;SDS011;23046;50.112;8.952;2023-12-29T00:02:22;2.30;;;1.65;;
37151;SDS011;23046;50.112;8.952;2023-12-29T00:02:32;1.80;;;1.70;;
37151;SDS011;23046;50.112;8.952;2023-12-29T00:02:42;2.17;;;1.80;;
37151;SDS011;23046;50.112;8.952;2023-12-29T00:02:53;2.30;;;1.80;;
37151;SDS011;23046;50.112;8.952;2023-12-29T00:03:03;2.90;;;1.88;;
37151;SDS011;23046;50.112;8.952;2023-12-29T00:03:13;2.17;;;1.70;;
37151;SDS011;23046;50.112;8.952;2023-12-29T00:03:23;2.43;;;1.60;;
37151;SDS011;23046;50.112;8.952;2023-12-29T00:03:35;2.50;;;1.60;;
37151;SDS011;23046;50.112;8.952;2023-12-29T00:03:45;2.90;;;1.65;;
37151;SDS011;23046;50.112;8.952;2023-12-29T00:03:55;2.30;;;1.67;;
37151;SDS011;23046;50.112;8.952;2023-12-29T00:04:05;1.70;;;1.60;;
37151;SDS011;23046;50.112;8.952;2023-12-29T00:04:15;1.60;;;1.50;;
37151;SDS011;23046;50.112;8.952;2023-12-29T00:04:26;1.60;;;1.50;;
37151;SDS011;23046;50.112;8.952;2023-12-29T00:04:36;1.65;;;1.40;;
37151;SDS011;23046;50.112;8.952;2023-12-29T00:04:46;2.00;;;1.40;;
37151;SDS011;23046;50.112;8.952;2023-12-29T00:04:56;1.80;;;1.50;;
37151;SDS011;23046;50.112;8.952;2023-12-29T00:05:07;1.77;;;1.63;;
37151;SDS011;23046;50.112;8.952;2023-12-29T00:05:17;1.87;;;1.77;;
37151;SDS011;23046;50.112;8.952;2023-12-29T00:05:27;2.00;;;1.80;;
37151;SDS011;23046;50.112;8.952;2023-12-29T00:05:37;2.00;;;1.80;;
37151;SDS011;23046;50.112;8.952;2023-12-29T00:05:47;2.13;;;1.93;;
37151;SDS011;23046;50.112;8.952;2023-12-29T00:05:58;2.00;;;1.80;;
37151;SDS011;23046;50.112;8.952;2023-12-29T00:06:08;2.15;;;1.75;;
37151;SDS011;23046;50.112;8.952;2023-12-29T00:06:18;1.73;;;1.53;;
37151;SDS011;23046;50.112;8.952;2023-12-29T00:06:29;1.70;;;1.60;;
37151;SDS011;23046;50.112;8.952;2023-12-29T00:06:39;1.70;;;1.60;;
37151;SDS011;23046;50.112;8.952;2023-12-29T00:06:50;1.73;;;1.63;;
37151;SDS011;23046;50.112;8.952;2023-12-29T00:07:01;1.93;;;1.60;;
37151;SDS011;23046;50.112;8.952;2023-12-29T00:07:11;1.80;;;1.50;;
37151;SDS011;23046;50.112;8.952;2023-12-29T00:07:21;2.00;;;1.55;;
37151;SDS011;23046;50.112;8.952;2023-12-29T00:07:31;1.70;;;1.60;;
37151;SDS011;23046;50.112;8.952;2023-12-29T00:07:42;1.77;;;1.67;;
37151;SDS011;23046;50.112;8.952;2023-12-29T00:07:52;1.80;;;1.70;;
37151;SDS011;23046;50.112;8.952;2023-12-29T00:08:02;1.70;;;1.60;;
37151;SDS011;23046;50.112;8.952;2023-12-29T00:08:12;1.73;;;1.60;;
37151;SDS011;23046;50.112;8.952;2023-12-29T00:08:22;1.80;;;1.60;;
37151;SDS011;23046;50.112;8.952;2023-12-29T00:08:33;2.37;;;1.73;;
37151;SDS011;23046;50.112;8.952;2023-12-29T00:08:43;2.47;;;1.80;;
37151;SDS011;23046;50.112;8.952;2023-12-29T00:08:53;2.27;;;1.70;;
37151;SDS011;23046;50.112;8.952;2023-12-29T00:09:03;3.03;;;1.65;;
37151;SDS011;23046;50.112;8.952;2023-12-29T00:09:14;2.80;;;1.60;;
37151;SDS011;23046;50.112;8.952;2023-12-29T00:09:24;3.00;;;1.70;;
37151;SDS011;23046;50.112;8.952;2023-12-29T00:09:35;2.33;;;1.63;;
37151;SDS011;23046;50.112;8.952;2023-12-29T00:09:50;2.20;;;1.55;;
37151;SDS011;23046;50.112;8.952;2023-12-29T00:10:00;2.10;;;1.52;;
37151;SDS011;23046;50.112;8.952;2023-12-29T00:10:10;2.07;;;1.63;;
37151;SDS011;23046;50.112;8.952;2023-12-29T00:10:21;2.90;;;1.70;;
37151;SDS011;23046;50.112;8.952;2023-12-29T00:10:31;2.63;;;1.67;;
37151;SDS011;23046;50.112;8.952;2023-12-29T00:10:41;2.10;;;1.50;;
37151;SDS011;23046;50.112;8.952;2023-12-29T00:10:51;1.60;;;1.50;;
37151;SDS011;23046;50.112;8.952;2023-12-29T00:11:02;2.30;;;1.60;;
37151;SDS011;23046;50.112;8.952;2023-12-29T00:11:21;2.20;;;1.50;;
37151;SDS011;23046;50.112;8.952;2023-12-29T00:11:31;1.98;;;1.52;;
37151;SDS011;23046;50.112;8.952;2023-12-29T00:11:42;1.90;;;1.60;;
37151;SDS011;23046;50.112;8.952;2023-12-29T00:11:52;1.87;;;1.53;;
37151;SDS011;23046;50.112;8.952;2023-12-29T00:12:04;1.77;;;1.58;;
37151;SDS011;23046;50.112;8.952;2023-12-29T00:12:14;2.40;;;1.63;;
37151;SDS011;23046;50.112;8.952;2023-12-29T00:12:24;2.25;;;1.70;;
37151;SDS011;23046;50.112;8.952;2023-12-29T00:12:35;1.90;;;1.60;;
37151;SDS011;23046;50.112;8.952;2023-12-29T00:12:45;2.13;;;1.77;;
37151;SDS011;23046;50.112;8.952;2023-12-29T00:12:55;2.20;;;1.70;;
37151;SDS011;23046;50.112;8.952;2023-12-29T00:13:05;2.08;;;1.67;;
37151;SDS011;23046;50.112;8.952;2023-12-29T00:13:16;1.67;;;1.50;;
37151;SDS011;23046;50.112;8.952;2023-12-29T00:13:32;1.85;;;1.58;;
37151;SDS011;23046;50.112;8.952;2023-12-29T00:13:42;2.20;;;1.60;;
37151;SDS011;23046;50.112;8.952;2023-12-29T00:13:53;2.35;;;1.40;;
37151;SDS011;23046;50.112;8.952;2023-12-29T00:14:03;2.03;;;1.30;;
37151;SDS011;23046;50.112;8.952;2023-12-29T00:14:13;1.83;;;1.37;;
37151;SDS011;23046;50.112;8.952;2023-12-29T00:14:23;1.57;;;1.47;;
37151;SDS011;23046;50.112;8.952;2023-12-29T00:14:36;1.70;;;1.60;;
37151;SDS011;23046;50.112;8.952;2023-12-29T00:14:47;1.80;;;1.70;;
37151;SDS011;23046;50.112;8.952;2023-12-29T00:14:57;1.93;;;1.77;;
37151;SDS011;23046;50.112;8.952;2023-12-29T00:15:07;1.87;;;1.70;;
37151;SDS011;23046;50.112;8.952;2023-12-29T00:15:18;2.40;;;1.70;;
37151;SDS011;23046;50.112;8.952;2023-12-29T00:15:28;2.33;;;1.70;;
37151;SDS011;23046;50.112;8.952;2023-12-29T00:15:39;2.17;;;1.67;;
37151;SDS011;23046;50.112;8.952;2023-12-29T00:15:52;1.80;;;1.60;;
37151;SDS011;23046;50.112;8.952;2023-12-29T00:16:02;1.95;;;1.52;;
37151;SDS011;23046;50.112;8.952;2023-12-29T00:16:13;2.08;;;1.60;;
37151;SDS011;23046;50.112;8.952;2023-12-29T00:16:23;1.70;;;1.60;;
37151;SDS011;23046;50.112;8.952;2023-12-29T00:16:33;3.20;;;1.70;;
37151;SDS011;23046;50.112;8.952;2023-12-29T00:16:43;3.40;;;1.80;;
37151;SDS011;23046;50.112;8.952;2023-12-29T00:16:54;3.65;;;1.88;;
37151;SDS011;23046;50.112;8.952;2023-12-29T00:17:07;2.45;;;1.67;;
37151;SDS011;23046;50.112;8.952;2023-12-29T00:17:17;2.43;;;1.63;;
37151;SDS011;23046;50.112;8.952;2023-12-29T00:17:27;3.00;;;1.60;;
37151;SDS011;23046;50.112;8.952;2023-12-29T00:17:37;1.90;;;1.53;;
37151;SDS011;23046;50.112;8.952;2023-12-29T00:17:50;1.70;;;1.58;;
37151;SDS011;23046;50.112;8.952;2023-12-29T00:18:02;1.70;;;1.60;;
37151;SDS011;23046;50.112;8.952;2023-12-29T00:18:13;1.70;;;1.60;;
37151;SDS011;23046;50.112;8.952;2023-12-29T00:18:23;1.80;;;1.70;;
37151;SDS011;23046;50.112;8.952;2023-12-29T00:18:36;1.80;;;1.70;;
37151;SDS011;23046;50.112;8.952;2023-12-29T00:18:46;1.98;;;1.77;;
37151;SDS011;23046;50.112;8.952;2023-12-29T00:18:56;1.90;;;1.80;;
37151;SDS011;23046;50.112;8.952;2023-12-29T00:19:07;2.17;;;1.70;;
37151;SDS011;23046;50.112;8.952;2023-12-29T00:19:17;2.15;;;1.55;;
37151;SDS011;23046;50.112;8.952;2023-12-29T00:19:27;2.30;;;1.57;;
37151;SDS011;23046;50.112;8.952;2023-12-29T00:19:37;2.10;;;1.60;;
37151;SDS011;23046;50.112;8.952;2023-12-29T00:19:47;2.17;;;1.70;;
37151;SDS011;23046;50.112;8.952;2023-12-29T00:19:58;2.10;;;1.70;;
37151;SDS011;23046;50.112;8.952;2023-12-29T00:20:08;1.77;;;1.60;;
37151;SDS011;23046;50.112;8.952;2023-12-29T00:20:19;1.70;;;1.50;;
37151;SDS011;23046;50.112;8.952;2023-12-29T00:20:29;1.80;;;1.60;;
37151;SDS011;23046;50.112;8.952;2023-12-29T00:20:39;1.85;;;1.63;;
37151;SDS011;23046;50.112;8.952;2023-12-29T00:20:49;2.03;;;1.83;;
37151;SDS011;23046;50.112;8.952;2023-12-29T00:20:59;1.97;;;1.83;;
37151;SDS011;23046;50.112;8.952;2023-12-29T00:21:10;1.90;;;1.77;;
37151;SDS011;23046;50.112;8.952;2023-12-29T00:21:20;1.67;;;1.53;;
37151;SDS011;23046;50.112;8.952;2023-12-29T00:21:31;2.35;;;1.55;;
37151;SDS011;23046;50.112;8.952;2023-12-29T00:21:42;2.70;;;1.60;;
37151;SDS011;23046;50.112;8.952;2023-12-29T00:21:52;3.10;;;1.70;;
37151;SDS011;23046;50.112;8.952;2023-12-29T00:22:02;2.20;;;1.60;;
37151;SDS011;23046;50.112;8.952;2023-12-29T00:22:13;1.97;;;1.63;;
37151;SDS011;23046;50.112;8.952;2023-12-29T00:22:23;1.77;;;1.67;;
37151;SDS011;23046;50.112;8.952;2023-12-29T00:22:35;1.80;;;1.70;;
37151;SDS011;23046;50.112;8.952;2023-12-29T00:22:45;1.90;;;1.77;;
37151;SDS011;23046;50.112;8.952;2023-12-29T00:22:55;1.70;;;1.60;;
37151;SDS011;23046;50.112;8.952;2023-12-29T00:23:08;2.20;;;1.77;;
37151;SDS011;23046;50.112;8.952;2023-12-29T00:23:18;2.20;;;1.73;;
37151;SDS011;23046;50.112;8.952;2023-12-29T00:23:29;2.30;;;1.70;;
37151;SDS011;23046;50.112;8.952;2023-12-29T00:23:39;2.07;;;1.57;;
37151;SDS011;23046;50.112;8.952;2023-12-29T00:23:49;1.98;;;1.50;;
37151;SDS011;23046;50.112;8.952;2023-12-29T00:24:00;1.87;;;1.63;;
37151;SDS011;23046;50.112;8.952;2023-12-29T00:24:10;1.60;;;1.50;;
37151;SDS011;23046;50.112;8.952;2023-12-29T00:24:20;2.50;;;1.53;;
37151;SDS011;23046;50.112;8.952;2023-12-29T00:24:30;2.33;;;1.48;;
37151;SDS011;23046;50.112;8.952;2023-12-29T00:24:44;2.53;;;1.65;;
37151;SDS011;23046;50.112;8.952;2023-12-29T00:24:54;1.70;;;1.60;;
37151;SDS011;23046;50.112;8.952;2023-12-29T00:25:04;1.85;;;1.60;;
37151;SDS011;23046;50.112;8.952;2023-12-29T00:25:15;1.83;;;1.50;;
37151;SDS011;23046;50.112;8.952;2023-12-29T00:25:25;1.77;;;1.50;;
37151;SDS011;23046;50.112;8.952;2023-12-29T00:25:36;2.00;;;1.50;;
37151;SDS011;23046;50.112;8.952;2023-12-29T00:25:46;2.40;;;1.67;;
37151;SDS011;23046;50.112;8.952;2023-12-29T00:25:57;2.93;;;1.80;;
37151;SDS011;23046;50.112;8.952;2023-12-29T00:26:07;2.93;;;1.80;;
37151;SDS011;23046;50.112;8.952;2023-12-29T00:26:19;2.97;;;1.73;;
37151;SDS011;23046;50.112;8.952;2023-12-29T00:26:37;2.08;;;1.70;;
37151;SDS011;23046;50.112;8.952;2023-12-29T00:26:47;1.97;;;1.70;;
37151;SDS011;23046;50.112;8.952;2023-12-29T00:26:57;1.90;;;1.77;;
37151;SDS011;23046;50.112;8.952;2023-12-29T00:27:08;1.95;;;1.70;;
37151;SDS011;23046;50.112;8.952;2023-12-29T00:27:19;2.53;;;1.80;;
37151;SDS011;23046;50.112;8.952;2023-12-29T00:27:29;2.53;;;1.80;;
37151;SDS011;23046;50.112;8.952;2023-12-29T00:27:42;2.95;;;2.17;;
37151;SDS011;23046;50.112;8.952;2023-12-29T00:27:53;2.38;;;2.00;;
37151;SDS011;23046;50.112;8.952;2023-12-29T00:28:04;1.83;;;1.57;;
37151;SDS011;23046;50.112;8.952;2023-12-29T00:28:14;1.63;;;1.40;;
37151;SDS011;23046;50.112;8.952;2023-12-29T00:28:25;1.73;;;1.50;;
37151;SDS011;23046;50.112;8.952;2023-12-29T00:28:35;1.70;;;1.50;;
37151;SDS011;23046;50.112;8.952;2023-12-29T00:28:50;2.17;;;1.63;;
37151;SDS011;23046;50.112;8.952;2023-12-29T00:29:00;2.83;;;1.63;;
37151;SDS011;23046;50.112;8.952;2023-12-29T00:29:11;3.10;;;1.77;;
37151;SDS011;23046;50.112;8.952;2023-12-29T00:29:22;2.50;;;1.70;;
37151;SDS011;23046;50.112;8.952;2023-12-29T00:29:33;2.27;;;1.77;;
37151;SDS011;23046;50.112;8.952;2023-12-29T00:29:43;2.03;;;1.77;;
37151;SDS011;23046;50.112;8.952;2023-12-29T00:29:54;2.27;;;1.80;;
37151;SDS011;23046;50.112;8.952;2023-12-29T00:30:04;2.20;;;1.73;;
37151;SDS011;23046;50.112;8.952;2023-12-29T00:30:15;2.50;;;1.73;;
37151;SDS011;23046;50.112;8.952;2023-12-29T00:30:25;1.93;;;1.70;;
37151;SDS011;23046;50.112;8.952;2023-12-29T00:30:37;1.73;;;1.53;;
37151;SDS011;23046;50.112;8.952;2023-12-29T00:30:49;1.70;;;1.60;;
37151;SDS011;23046;50.112;8.952;2023-12-29T00:30:59;2.20;;;1.77;;
37151;SDS011;23046;50.112;8.952;2023-12-29T00:31:13;2.30;;;1.80;;
37151;SDS011;23046;50.112;8.952;2023-12-29T00:31:25;1.80;;;1.70;;
37151;SDS011;23046;50.112;8.952;2023-12-29T00:31:35;3.15;;;1.73;;
37151;SDS011;23046;50.112;8.952;2023-12-29T00:31:46;3.23;;;1.60;;
37151;SDS011;23046;50.112;8.952;2023-12-29T00:31:56;3.63;;;1.60;;
37151;SDS011;23046;50.112;8.952;2023-12-29T00:32:06;2.50;;;1.60;;
37151;SDS011;23046;50.112;8.952;2023-12-29T00:32:16;2.20;;;1.60;;
37151;SDS011;23046;50.112;8.952;2023-12-29T00:32:27;1.98;;;1.60;;
37151;SDS011;23046;50.112;8.952;2023-12-29T00:32:37;1.97;;;1.70;;
37151;SDS011;23046;50.112;8.952;2023-12-29T00:32:47;2.50;;;1.70;;
37151;SDS011;23046;50.112;8.952;2023-12-29T00:32:57;2.57;;;1.70;;
37151;SDS011;23046;50.112;8.952;2023-12-29T00:33:07;2.17;;;1.60;;
37151;SDS011;23046;50.112;8.952;2023-12-29T00:33:18;3.05;;;1.77;;
37151;SDS011;23046;50.112;8.952;2023-12-29T00:33:28;2.93;;;1.60;;
37151;SDS011;23046;50.112;8.952;2023-12-29T00:33:38;3.00;;;1.70;;
37151;SDS011;23046;50.112;8.952;2023-12-29T00:33:48;1.70;;;1.60;;
37151;SDS011;23046;50.112;8.952;2023-12-29T00:34:03;1.95;;;1.75;;
37151;SDS011;23046;50.112;8.952;2023-12-29T00:34:13;2.03;;;1.70;;
37151;SDS011;23046;50.112;8.952;2023-12-29T00:34:24;1.93;;;1.67;;
37151;SDS011;23046;50.112;8.952;2023-12-29T00:34:34;1.98;;;1.67;;
37151;SDS011;23046;50.112;8.952;2023-12-29T00:34:44;1.80;;;1.60;;
37151;SDS011;23046;50.112;8.952;2023-12-29T00:34:55;1.70;;;1.60;;
37151;SDS011;23046;50.112;8.952;2023-12-29T00:35:06;1.70;;;1.60;;
37151;SDS011;23046;50.112;8.952;2023-12-29T00:35:16;1.70;;;1.60;;
37151;SDS011;23046;50.112;8.952;2023-12-29T00:35:26;1.67;;;1.57;;
37151;SDS011;23046;50.112;8.952;2023-12-29T00:35:37;1.53;;;1.43;;
37151;SDS011;23046;50.112;8.952;2023-12-29T00:35:48;1.75;;;1.55;;
37151;SDS011;23046;50.112;8.952;2023-12-29T00:35:59;1.70;;;1.60;;
37151;SDS011;23046;50.112;8.952;2023-12-29T00:36:16;1.77;;;1.67;;
37151;SDS011;23046;50.112;8.952;2023-12-29T00:36:26;1.60;;;1.50;;
37151;SDS011;23046;50.112;8.952;2023-12-29T00:36:36;1.83;;;1.53;;
37151;SDS011;23046;50.112;8.952;2023-12-29T00:36:47;2.20;;;1.80;;
37151;SDS011;23046;50.112;8.952;2023-12-29T00:36:58;3.72;;;1.98;;
37151;SDS011;23046;50.112;8.952;2023-12-29T00:37:09;3.50;;;1.87;;
37151;SDS011;23046;50.112;8.952;2023-12-29T00:37:19;3.50;;;1.60;;
37151;SDS011;23046;50.112;8.952;2023-12-29T00:37:29;2.05;;;1.60;;
37151;SDS011;23046;50.112;8.952;2023-12-29T00:37:39;1.63;;;1.50;;
37151;SDS011;23046;50.112;8.952;2023-12-29T00:37:50;1.67;;;1.57;;
37151;SDS011;23046;50.112;8.952;2023-12-29T00:38:00;2.22;;;1.45;;
37151;SDS011;23046;50.112;8.952;2023-12-29T00:38:10;3.13;;;1.70;;
37151;SDS011;23046;50.112;8.952;2023-12-29T00:38:20;3.27;;;1.70;;
37151;SDS011;23046;50.112;8.952;2023-12-29T00:38:31;5.03;;;1.77;;
37151;SDS011;23046;50.112;8.952;2023-12-29T00:38:41;4.67;;;1.63;;
37151;SDS011;23046;50.112;8.952;2023-12-29T00:38:51;4.75;;;1.70;;
37151;SDS011;23046;50.112;8.952;2023-12-29T00:39:01;1.87;;;1.63;;
37151;SDS011;23046;50.112;8.952;2023-12-29T00:39:12;1.73;;;1.63;;
37151;SDS011;23046;50.112;8.952;2023-12-29T00:39:22;2.20;;;1.70;;
37151;SDS011;23046;50.112;8.952;2023-12-29T00:39:38;3.22;;;1.77;;
37151;SDS011;23046;50.112;8.952;2023-12-29T00:39:48;2.87;;;1.70;;
37151;SDS011;23046;50.112;8.952;2023-12-29T00:39:58;1.90;;;1.70;;
37151;SDS011;23046;50.112;8.952;2023-12-29T00:40:09;1.63;;;1.53;;
37151;SDS011;23046;50.112;8.952;2023-12-29T00:40:19;1.70;;;1.60;;
37151;SDS011;23046;50.112;8.952;2023-12-29T00:40:29;1.63;;;1.53;;
37151;SDS011;23046;50.112;8.952;2023-12-29T00:40:39;1.70;;;1.60;;
37151;SDS011;23046;50.112;8.952;2023-12-29T00:40:50;1.63;;;1.50;;
37151;SDS011;23046;50.112;8.952;2023-12-29T00:41:00;1.80;;;1.50;;
37151;SDS011;23046;50.112;8.952;2023-12-29T00:41:10;1.70;;;1.50;;
37151;SDS011;23046;50.112;8.952;2023-12-29T00:41:20;2.40;;;1.53;;
37151;SDS011;23046;50.112;8.952;2023-12-29T00:41:31;2.60;;;1.70;;
37151;SDS011;23046;50.112;8.952;2023-12-29T00:41:41;2.63;;;1.67;;
37151;SDS011;23046;50.112;8.952;2023-12-29T00:41:52;1.77;;;1.63;;
37151;SDS011;23046;50.112;8.952;2023-12-29T00:42:02;2.60;;;1.50;;
37151;SDS011;23046;50.112;8.952;2023-12-29T00:42:12;2.70;;;1.45;;
37151;SDS011;23046;50.112;8.952;2023-12-29T00:42:23;2.60;;;1.50;;
37151;SDS011;23046;50.112;8.952;2023-12-29T00:42:34;1.65;;;1.50;;
37151;SDS011;23046;50.112;8.952;2023-12-29T00:42:44;1.83;;;1.63;;
37151;SDS011;23046;50.112;8.952;2023-12-29T00:42:54;1.70;;;1.60;;
37151;SDS011;23046;50.112;8.952;2023-12-29T00:43:04;1.95;;;1.60;;
37151;SDS011;23046;50.112;8.952;2023-12-29T00:43:14;1.87;;;1.53;;
37151;SDS011;23046;50.112;8.952;2023-12-29T00:43:25;2.60;;;1.60;;
37151;SDS011;23046;50.112;8.952;2023-12-29T00:43:35;2.50;;;1.60;;
37151;SDS011;23046;50.112;8.952;2023-12-29T00:43:45;2.40;;;1.70;;
37151;SDS011;23046;50.112;8.952;2023-12-29T00:43:56;2.13;;;1.70;;
37151;SDS011;23046;50.112;8.952;2023-12-29T00:44:07;1.83;;;1.58;;
37151;SDS011;23046;50.112;8.952;2023-12-29T00:44:17;1.80;;;1.50;;
37151;SDS011;23046;50.112;8.952;2023-12-29T00:44:28;1.70;;;1.60;;
37151;SDS011;23046;50.112;8.952;2023-12-29T00:44:38;1.87;;;1.70;;
37151;SDS011;23046;50.112;8.952;2023-12-29T00:44:49;1.98;;;1.70;;
37151;SDS011;23046;50.112;8.952;2023-12-29T00:44:59;2.00;;;1.67;;
37151;SDS011;23046;50.112;8.952;2023-12-29T00:45:09;1.70;;;1.60;;
37151;SDS011;23046;50.112;8.952;2023-12-29T00:45:20;1.80;;;1.70;;
37151;SDS011;23046;50.112;8.952;2023-12-29T00:45:32;1.70;;;1.60;;
37151;SDS011;23046;50.112;8.952;2023-12-29T00:45:45;1.58;;;1.48;;
37151;SDS011;23046;50.112;8.952;2023-12-29T00:45:56;1.53;;;1.43;;
37151;SDS011;23046;50.112;8.952;2023-12-29T00:46:07;1.88;;;1.60;;
37151;SDS011;23046;50.112;8.952;2023-12-29T00:46:21;2.17;;;1.63;;
37151;SDS011;23046;50.112;8.952;2023-12-29T00:46:31;3.23;;;1.80;;
37151;SDS011;23046;50.112;8.952;2023-12-29T00:46:41;3.13;;;1.63;;
37151;SDS011;23046;50.112;8.952;2023-12-29T00:46:51;3.10;;;1.60;;
37151;SDS011;23046;50.112;8.952;2023-12-29T00:47:02;2.05;;;1.48;;
37151;SDS011;23046;50.112;8.952;2023-12-29T00:47:12;2.03;;;1.53;;
37151;SDS011;23046;50.112;8.952;2023-12-29T00:47:22;1.63;;;1.40;;
37151;SDS011;23046;50.112;8.952;2023-12-29T00:47:33;1.90;;;1.65;;
37151;SDS011;23046;50.112;8.952;2023-12-29T00:47:43;1.98;;;1.77;;
37151;SDS011;23046;50.112;8.952;2023-12-29T00:47:54;2.03;;;1.83;;
37151;SDS011;23046;50.112;8.952;2023-12-29T00:48:05;1.88;;;1.73;;
37151;SDS011;23046;50.112;8.952;2023-12-29T00:48:15;2.00;;;1.80;;
37151;SDS011;23046;50.112;8.952;2023-12-29T00:48:26;2.15;;;1.80;;
37151;SDS011;23046;50.112;8.952;2023-12-29T00:48:36;2.40;;;1.60;;
37151;SDS011;23046;50.112;8.952;2023-12-29T00:48:46;2.03;;;1.40;;
37151;SDS011;23046;50.112;8.952;2023-12-29T00:48:57;2.45;;;1.40;;
37151;SDS011;23046;50.112;8.952;2023-12-29T00:49:07;2.10;;;1.50;;
37151;SDS011;23046;50.112;8.952;2023-12-29T00:49:18;2.47;;;1.60;;
37151;SDS011;23046;50.112;8.952;2023-12-29T00:49:28;1.50;;;1.40;;
37151;SDS011;23046;50.112;8.952;2023-12-29T00:49:39;1.47;;;1.37;;
37151;SDS011;23046;50.112;8.952;2023-12-29T00:49:50;1.30;;;1.20;;
37151;SDS011;23046;50.112;8.952;2023-12-29T00:50:00;1.43;;;1.20;;
37151;SDS011;23046;50.112;8.952;2023-12-29T00:50:11;1.50;;;1.27;;
37151;SDS011;23046;50.112;8.952;2023-12-29T00:50:21;1.83;;;1.50;;
37151;SDS011;23046;50.112;8.952;2023-12-29T00:50:31;1.60;;;1.50;;
37151;SDS011;23046;50.112;8.952;2023-12-29T00:50:41;2.47;;;1.50;;
37151;SDS011;23046;50.112;8.952;2023-12-29T00:50:52;2.58;;;1.40;;
37151;SDS011;23046;50.112;8.952;2023-12-29T00:51:02;2.70;;;1.50;;
37151;SDS011;23046;50.112;8.952;2023-12-29T00:51:14;1.60;;;1.50;;
37151;SDS011;23046;50.112;8.952;2023-12-29T00:51:24;1.53;;;1.43;;
37151;SDS011;23046;50.112;8.952;2023-12-29T00:51:38;1.57;;;1.43;;
37151;SDS011;23046;50.112;8.952;2023-12-29T00:51:49;1.52;;;1.42;;
37151;SDS011;23046;50.112;8.952;2023-12-29T00:51:59;1.60;;;1.43;;
37151;SDS011;23046;50.112;8.952;2023-12-29T00:52:10;1.90;;;1.27;;
37151;SDS011;23046;50.112;8.952;2023-12-29T00:52:20;2.13;;;1.20;;
37151;SDS011;23046;50.112;8.952;2023-12-29T00:52:30;1.93;;;1.23;;
37151;SDS011;23046;50.112;8.952;2023-12-29T00:52:41;1.67;;;1.47;;
37151;SDS011;23046;50.112;8.952;2023-12-29T00:52:51;1.85;;;1.60;;
37151;SDS011;23046;50.112;8.952;2023-12-29T00:53:01;1.93;;;1.73;;
37151;SDS011;23046;50.112;8.952;2023-12-29T00:53:11;2.07;;;1.87;;
37151;SDS011;23046;50.112;8.952;2023-12-29T00:53:21;1.80;;;1.70;;
37151;SDS011;23046;50.112;8.952;2023-12-29T00:53:32;1.58;;;1.48;;
37151;SDS011;23046;50.112;8.952;2023-12-29T00:53:44;1.55;;;1.42;;
37151;SDS011;23046;50.112;8.952;2023-12-29T00:53:54;1.80;;;1.50;;
37151;SDS011;23046;50.112;8.952;2023-12-29T00:54:04;1.67;;;1.53;;
37151;SDS011;23046;50.112;8.952;2023-12-29T00:54:14;1.50;;;1.40;;
37151;SDS011;23046;50.112;8.952;2023-12-29T00:54:25;1.60;;;1.50;;
37151;SDS011;23046;50.112;8.952;2023-12-29T00:54:35;1.63;;;1.53;;
37151;SDS011;23046;50.112;8.952;2023-12-29T00:54:45;1.57;;;1.40;;
37151;SDS011;23046;50.112;8.952;2023-12-29T00:54:56;1.50;;;1.30;;
37151;SDS011;23046;50.112;8.952;2023-12-29T00:55:06;1.40;;;1.30;;
37151;SDS011;23046;50.112;8.952;2023-12-29T00:55:16;1.60;;;1.50;;
37151;SDS011;23046;50.112;8.952;2023-12-29T00:55:27;1.50;;;1.40;;
37151;SDS011;23046;50.112;8.952;2023-12-29T00:55:37;1.92;;;1.50;;
37151;SDS011;23046;50.112;8.952;2023-12-29T00:55:47;1.87;;;1.50;;
37151;SDS011;23046;50.112;8.952;2023-12-29T00:55:58;1.93;;;1.50;;
37151;SDS011;23046;50.112;8.952;2023-12-29T00:56:10;1.52;;;1.42;;
37151;SDS011;23046;50.112;8.952;2023-12-29T00:56:20;1.60;;;1.50;;
37151;SDS011;23046;50.112;8.952;2023-12-29T00:56:31;1.50;;;1.40;;
37151;SDS011;23046;50.112;8.952;2023-12-29T00:56:41;1.40;;;1.30;;
37151;SDS011;23046;50.112;8.952;2023-12-29T00:56:51;1.40;;;1.30;;
37151;SDS011;23046;50.112;8.952;2023-12-29T00:57:01;1.50;;;1.40;;
37151;SDS011;23046;50.112;8.952;2023-12-29T00:57:11;1.50;;;1.40;;
37151;SDS011;23046;50.112;8.952;2023-12-29T00:57:22;1.47;;;1.37;;
37151;SDS011;23046;50.112;8.952;2023-12-29T00:57:32;1.50;;;1.40;;
37151;SDS011;23046;50.112;8.952;2023-12-29T00:57:42;1.60;;;1.50;;
37151;SDS011;23046;50.112;8.952;2023-12-29T00:57:52;1.50;;;1.40;;
37151;SDS011;23046;50.112;8.952;2023-12-29T00:58:03;1.50;;;1.40;;
37151;SDS011;23046;50.112;8.952;2023-12-29T00:58:13;2.33;;;1.40;;
37151;SDS011;23046;50.112;8.952;2023-12-29T00:58:23;2.47;;;1.47;;
37151;SDS011;23046;50.112;8.952;2023-12-29T00:58:33;3.47;;;1.65;;
37151;SDS011;23046;50.112;8.952;2023-12-29T00:58:43;2.57;;;1.70;;
37151;SDS011;23046;50.112;8.952;2023-12-29T00:58:53;2.57;;;1.70;;
37151;SDS011;23046;50.112;8.952;2023-12-29T00:59:04;1.63;;;1.53;;
37151;SDS011;23046;50.112;8.952;2023-12-29T00:59:14;1.60;;;1.50;;
37151;SDS011;23046;50.112;8.952;2023-12-29T00:59:24;1.67;;;1.50;;
37151;SDS011;23046;50.112;8.952;2023-12-29T00:59:36;1.60;;;1.50;;
37151;SDS011;23046;50.112;8.952;2023-12-29T00:59:46;1.35;;;1.25;;
37151;SDS011;23046;50.112;8.952;2023-12-29T00:59:57;1.50;;;1.40;;
37151;SDS011;23046;50.112;8.952;2023-12-29T01:00:07;1.43;;;1.33;;
37151;SDS011;23046;50.112;8.952;2023-12-29T01:00:18;1.45;;;1.35;;
37151;SDS011;23046;50.112;8.952;2023-12-29T01:00:28;1.67;;;1.30;;
37151;SDS011;23046;50.112;8.952;2023-12-29T01:00:38;1.80;;;1.40;;
37151;SDS011;23046;50.112;8.952;2023-12-29T01:00:49;2.40;;;1.40;;
37151;SDS011;23046;50.112;8.952;2023-12-29T01:00:59;3.58;;;1.70;;
37151;SDS011;23046;50.112;8.952;2023-12-29T01:01:10;3.67;;;1.73;;
37151;SDS011;23046;50.112;8.952;2023-12-29T01:01:21;3.20;;;1.70;;
37151;SDS011;23046;50.112;8.952;2023-12-29T01:01:35;1.97;;;1.50;;
37151;SDS011;23046;50.112;8.952;2023-12-29T01:01:45;2.67;;;1.52;;
37151;SDS011;23046;50.112;8.952;2023-12-29T01:01:56;2.05;;;1.40;;
37151;SDS011;23046;50.112;8.952;2023-12-29T01:02:06;1.75;;;1.30;;
37151;SDS011;23046;50.112;8.952;2023-12-29T01:02:17;1.20;;;1.10;;
37151;SDS011;23046;50.112;8.952;2023-12-29T01:02:27;1.30;;;1.20;;
37151;SDS011;23046;50.112;8.952;2023-12-29T01:02:38;1.30;;;1.20;;
37151;SDS011;23046;50.112;8.952;2023-12-29T01:02:49;1.45;;;1.35;;
37151;SDS011;23046;50.112;8.952;2023-12-29T01:02:59;2.08;;;1.38;;
37151;SDS011;23046;50.112;8.952;2023-12-29T01:03:10;2.43;;;1.47;;
37151;SDS011;23046;50.112;8.952;2023-12-29T01:03:20;2.10;;;1.43;;
37151;SDS011;23046;50.112;8.952;2023-12-29T01:03:30;1.63;;;1.52;;
37151;SDS011;23046;50.112;8.952;2023-12-29T01:03:40;1.80;;;1.50;;
37151;SDS011;23046;50.112;8.952;2023-12-29T01:03:51;1.67;;;1.40;;
37151;SDS011;23046;50.112;8.952;2023-12-29T01:04:04;1.40;;;1.30;;
37151;SDS011;23046;50.112;8.952;2023-12-29T01:04:14;1.38;;;1.27;;